Time;durP1;ratioP1;P1;durP2;ratioP2;P2;SDS_P1;SDS_P2;PMS_P1;PMS_P2;Temp;Humidity;BMP_temperature;BMP_pressure;BME280_temperature;BME280_humidity;BME280_pressure;Samples;Min_cycle;Max_cycle;Signal;HPM_P1;HPM_P2
2021/08/15 00:00:50;;;;;;;9.68;3.13;;;19.50;67.40;;;;;;5102031;28;20058;-93
2021/08/15 00:03:16;;;;;;;7.25;2.97;;;19.60;67.70;;;;;;5120001;28;20035;-93
2021/08/15 00:05:41;;;;;;;7.32;2.88;;;19.50;66.60;;;;;;5102144;28;20361;-92
2021/08/15 00:08:11;;;;;;;6.88;2.75;;;19.50;66.70;;;;;;5101162;28;20031;-93
2021/08/15 00:10:38;;;;;;;6.05;2.70;;;19.60;67.20;;;;;;5100637;28;20020;-94
2021/08/15 00:16:56;;;;;;;7.32;3.10;;;19.40;67.70;;;;;;5030798;28;20128;-92
2021/08/15 00:19:21;;;;;;;9.35;3.25;;;19.30;67.20;;;;;;5030957;28;20399;-89
2021/08/15 00:22:13;;;;;;;8.38;3.33;;;19.10;69.00;;;;;;5013964;28;20049;-92
2021/08/15 00:25:01;;;;;;;;;;;;;;;;;;;;;
2021/08/15 00:27:55;;;;;;;7.72;3.20;;;19.20;68.90;;;;;;5030888;28;20046;-91
2021/08/15 00:30:34;;;;;;;;;;;;;;;;;;;;;
2021/08/15 00:33:20;;;;;;;7.47;3.15;;;19.30;68.90;;;;;;5034780;28;20026;-92
2021/08/15 00:35:46;;;;;;;8.55;3.17;;;19.40;68.40;;;;;;5021604;28;20018;-91
2021/08/15 00:38:20;;;;;;;6.13;2.95;;;19.40;69.20;;;;;;5016799;28;20041;-91
2021/08/15 00:40:47;;;;;;;8.07;2.95;;;19.40;69.00;;;;;;5018672;28;20041;-91
2021/08/15 00:43:12;;;;;;;8.10;3.17;;;19.40;68.20;;;;;;5014660;28;20130;-91
2021/08/15 00:45:38;;;;;;;6.70;3.25;;;19.40;68.70;;;;;;5015027;28;20065;-91
2021/08/15 00:48:10;;;;;;;7.40;3.10;;;19.30;68.40;;;;;;5031989;28;20108;-90
2021/08/15 00:50:39;;;;;;;10.43;3.20;;;19.20;68.70;;;;;;4999068;28;20057;-91
2021/08/15 00:53:08;;;;;;;7.45;3.50;;;19.20;68.60;;;;;;5060888;28;20038;-91
2021/08/15 00:55:36;;;;;;;9.02;3.42;;;19.20;68.80;;;;;;5116071;27;20031;-91
2021/08/15 00:58:08;;;;;;;7.03;3.45;;;19.20;69.90;;;;;;5094492;28;20381;-93
2021/08/15 01:00:36;;;;;;;6.97;3.47;;;19.10;69.70;;;;;;5096737;28;20420;-89
2021/08/15 01:03:01;;;;;;;6.63;3.00;;;19.00;70.70;;;;;;5095901;28;20023;-91
2021/08/15 01:05:29;;;;;;;8.07;3.60;;;19.00;70.40;;;;;;5095629;28;20025;-91
2021/08/15 01:07:54;;;;;;;9.20;3.50;;;19.00;70.00;;;;;;5096554;28;20471;-91
2021/08/15 01:10:20;;;;;;;10.07;3.60;;;19.00;71.40;;;;;;5113775;28;20031;-90
2021/08/15 01:12:46;;;;;;;8.68;3.45;;;19.10;70.50;;;;;;5095185;28;20445;-89
2021/08/15 01:15:15;;;;;;;9.43;3.78;;;19.00;71.40;;;;;;5095477;28;20023;-91
2021/08/15 01:17:42;;;;;;;8.10;3.28;;;18.90;72.70;;;;;;5096146;28;20063;-92
2021/08/15 01:20:09;;;;;;;6.85;3.22;;;18.90;71.20;;;;;;5096221;28;20031;-95
2021/08/15 01:22:40;;;;;;;10.38;3.90;;;18.80;71.50;;;;;;5098913;28;20024;-95
2021/08/15 01:25:07;;;;;;;7.80;3.20;;;18.80;71.40;;;;;;5100730;28;20391;-94
2021/08/15 01:27:42;;;;;;;8.57;3.20;;;18.90;71.40;;;;;;5101489;28;20046;-95
2021/08/15 01:30:13;;;;;;;9.43;3.40;;;18.90;70.80;;;;;;5097752;28;20016;-93
2021/08/15 01:32:41;;;;;;;7.93;3.30;;;18.80;71.80;;;;;;5096653;28;20023;-92
2021/08/15 01:35:07;;;;;;;7.18;3.33;;;18.80;71.40;;;;;;5113723;28;20020;-91
2021/08/15 01:37:33;;;;;;;8.98;3.47;;;18.80;71.70;;;;;;5095765;28;20028;-91
2021/08/15 01:40:02;;;;;;;8.77;3.20;;;18.80;71.70;;;;;;5113761;28;20031;-95
2021/08/15 01:42:29;;;;;;;7.53;3.33;;;18.80;72.50;;;;;;5095152;28;20034;-95
2021/08/15 01:44:55;;;;;;;8.65;3.67;;;18.70;71.20;;;;;;5094811;28;20088;-93
2021/08/15 01:47:21;;;;;;;8.00;3.20;;;18.70;72.80;;;;;;5095728;28;20051;-95
2021/08/15 01:49:46;;;;;;;8.38;2.95;;;18.70;72.00;;;;;;5095981;28;20547;-92
2021/08/15 01:52:12;;;;;;;8.52;3.47;;;18.70;72.20;;;;;;5095353;28;20028;-93
2021/08/15 01:54:38;;;;;;;8.45;3.63;;;18.70;71.60;;;;;;5113359;28;20110;-94
2021/08/15 01:57:03;;;;;;;7.57;3.28;;;18.70;70.90;;;;;;5095149;28;20036;-94
2021/08/15 01:59:29;;;;;;;8.88;3.40;;;18.60;71.10;;;;;;5113491;28;20035;-94
2021/08/15 02:01:55;;;;;;;9.98;3.53;;;18.60;71.10;;;;;;5095373;28;20028;-93
2021/08/15 02:04:22;;;;;;;6.95;3.40;;;18.60;71.50;;;;;;5095270;28;20081;-93
2021/08/15 02:06:49;;;;;;;7.90;3.40;;;18.50;71.60;;;;;;5095761;28;20085;-93
2021/08/15 02:09:15;;;;;;;9.02;3.47;;;18.50;71.70;;;;;;5113079;28;20023;-88
2021/08/15 02:11:40;;;;;;;9.52;3.30;;;18.50;71.80;;;;;;5113100;28;20079;-92
2021/08/15 02:14:06;;;;;;;7.30;2.83;;;18.50;71.70;;;;;;5095391;28;20475;-92
2021/08/15 02:16:32;;;;;;;8.20;3.17;;;18.50;71.10;;;;;;5095585;28;20514;-90
2021/08/15 02:19:07;;;;;;;5.28;2.60;;;18.50;71.50;;;;;;5094324;28;20109;-92
2021/08/15 02:21:33;;;;;;;10.65;4.10;;;18.40;71.40;;;;;;5094487;28;20521;-91
2021/08/15 02:23:59;;;;;;;8.57;3.28;;;18.40;72.40;;;;;;5094387;28;20364;-92
2021/08/15 02:26:24;;;;;;;9.13;2.90;;;18.50;71.70;;;;;;5093152;28;20035;-91
2021/08/15 02:32:27;;;;;;;8.35;3.10;;;18.40;71.00;;;;;;5108477;28;20169;-91
2021/08/15 02:37:51;;;;;;;8.23;2.90;;;18.50;72.00;;;;;;5095222;28;20074;-93
2021/08/15 02:40:19;;;;;;;7.80;2.85;;;18.40;71.00;;;;;;5094800;28;20024;-92
2021/08/15 02:42:46;;;;;;;6.28;3.05;;;18.30;70.80;;;;;;5094315;28;20055;-93
2021/08/15 02:45:15;;;;;;;5.38;2.47;;;18.20;70.90;;;;;;5093879;28;20066;-94
2021/08/15 02:47:40;;;;;;;8.95;3.42;;;18.20;71.30;;;;;;5094140;28;20028;-90
2021/08/15 02:50:07;;;;;;;5.35;2.78;;;18.20;71.40;;;;;;5094543;28;20020;-92
2021/08/15 02:52:32;;;;;;;6.82;3.13;;;18.20;71.90;;;;;;5111016;28;20031;-91
2021/08/15 02:55:00;;;;;;;7.45;3.05;;;18.20;71.50;;;;;;5094609;28;20514;-91
2021/08/15 02:57:25;;;;;;;12.48;3.28;;;18.10;71.60;;;;;;5096370;28;20039;-90
2021/08/15 02:59:51;;;;;;;7.15;2.90;;;18.10;71.50;;;;;;5116481;28;20099;-92
2021/08/15 03:02:18;;;;;;;11.13;3.17;;;18.00;71.60;;;;;;5098435;28;20059;-91
2021/08/15 03:04:45;;;;;;;7.90;2.75;;;18.00;72.60;;;;;;5117506;28;20019;-91
2021/08/15 03:07:15;;;;;;;6.53;2.80;;;17.90;71.30;;;;;;5098927;28;20030;-90
2021/08/15 03:09:42;;;;;;;7.28;2.85;;;17.90;71.90;;;;;;5098424;28;20075;-91
2021/08/15 03:12:08;;;;;;;6.03;2.70;;;17.90;71.30;;;;;;5098049;28;20024;-90
2021/08/15 03:14:34;;;;;;;7.13;2.80;;;17.90;72.20;;;;;;5099743;28;20111;-90
2021/08/15 03:16:59;;;;;;;8.65;2.67;;;18.00;72.20;;;;;;5098024;28;20051;-90
2021/08/15 03:19:25;;;;;;;7.43;3.17;;;17.90;72.00;;;;;;5098697;28;20031;-90
2021/08/15 03:21:51;;;;;;;8.75;3.20;;;17.90;71.80;;;;;;5097760;28;20024;-89
2021/08/15 03:24:17;;;;;;;10.32;2.63;;;17.90;71.90;;;;;;5096934;28;20031;-91
2021/08/15 03:26:46;;;;;;;7.35;2.67;;;17.90;72.50;;;;;;5095995;28;20110;-91
2021/08/15 03:29:13;;;;;;;6.57;2.95;;;17.90;72.30;;;;;;5098083;28;20073;-90
2021/08/15 03:31:39;;;;;;;6.15;2.70;;;17.90;72.40;;;;;;5098072;28;20016;-92
2021/08/15 03:34:05;;;;;;;7.85;3.10;;;17.80;71.70;;;;;;5116060;28;20032;-94
2021/08/15 03:36:31;;;;;;;5.78;2.92;;;17.80;71.80;;;;;;5097451;28;20114;-94
2021/08/15 03:38:56;;;;;;;8.25;2.75;;;17.70;71.80;;;;;;5097638;28;20161;-93
2021/08/15 03:41:22;;;;;;;6.03;2.50;;;17.80;72.30;;;;;;5097904;28;20049;-94
2021/08/15 03:43:48;;;;;;;7.35;3.33;;;17.80;72.20;;;;;;5094090;28;20030;-92
2021/08/15 03:46:13;;;;;;;5.55;2.65;;;17.80;72.20;;;;;;5116236;27;20391;-94
2021/08/15 03:48:39;;;;;;;6.18;2.58;;;17.70;72.50;;;;;;5097914;28;20118;-94
2021/08/15 03:51:04;;;;;;;7.55;2.88;;;17.70;73.00;;;;;;5097875;28;20107;-94
2021/08/15 03:53:30;;;;;;;6.72;2.95;;;17.70;72.10;;;;;;5097849;28;20051;-92
2021/08/15 03:55:56;;;;;;;9.25;3.25;;;17.70;72.00;;;;;;5097854;28;20024;-93
2021/08/15 03:58:22;;;;;;;6.90;2.90;;;17.60;72.00;;;;;;5115819;28;20503;-94
2021/08/15 04:00:47;;;;;;;10.23;3.25;;;17.60;71.90;;;;;;5096622;28;20059;-94
2021/08/15 04:03:13;;;;;;;5.80;2.63;;;17.60;72.00;;;;;;5096340;28;20027;-90
2021/08/15 04:05:40;;;;;;;5.07;2.42;;;17.50;71.90;;;;;;5096382;28;20567;-90
2021/08/15 04:08:07;;;;;;;8.80;3.05;;;17.50;72.20;;;;;;5096431;28;20032;-93
2021/08/15 04:10:33;;;;;;;8.00;2.80;;;17.40;72.10;;;;;;5097409;28;20122;-92
2021/08/15 04:12:59;;;;;;;6.35;2.90;;;17.40;72.30;;;;;;5096599;28;20045;-90
2021/08/15 04:15:27;;;;;;;6.38;2.67;;;17.40;73.20;;;;;;5095931;28;20031;-91
2021/08/15 04:17:53;;;;;;;5.78;2.47;;;17.50;72.80;;;;;;5096408;28;20099;-92
2021/08/15 04:20:21;;;;;;;7.03;3.03;;;17.40;72.10;;;;;;5097123;28;20039;-91
2021/08/15 04:22:47;;;;;;;6.35;2.75;;;17.40;72.60;;;;;;5115672;28;20490;-92
2021/08/15 04:25:12;;;;;;;7.20;2.75;;;17.30;72.90;;;;;;5097043;28;20110;-93
2021/08/15 04:27:38;;;;;;;6.53;2.80;;;17.30;72.40;;;;;;5115088;28;20059;-92
2021/08/15 04:30:06;;;;;;;6.68;3.15;;;17.30;72.80;;;;;;5096010;28;20016;-91
2021/08/15 04:32:31;;;;;;;8.02;2.80;;;17.30;72.30;;;;;;5096926;28;20157;-93
2021/08/15 04:34:57;;;;;;;6.00;2.75;;;17.30;72.80;;;;;;5097313;28;20069;-91
2021/08/15 04:37:23;;;;;;;4.68;2.40;;;17.30;73.00;;;;;;5097089;28;20031;-93
2021/08/15 04:39:48;;;;;;;5.82;2.45;;;17.20;72.40;;;;;;5115104;28;20027;-92
2021/08/15 04:42:14;;;;;;;7.80;2.78;;;17.20;72.50;;;;;;5096566;28;20087;-92
2021/08/15 04:44:40;;;;;;;7.22;3.17;;;17.20;72.80;;;;;;5114229;28;20076;-89
2021/08/15 04:47:06;;;;;;;5.22;2.67;;;17.20;72.90;;;;;;5096310;28;20442;-87
2021/08/15 04:49:32;;;;;;;6.70;2.83;;;17.20;72.70;;;;;;5094249;28;20020;-91
2021/08/15 04:51:58;;;;;;;7.18;2.80;;;17.20;72.90;;;;;;5096520;28;20038;-91
2021/08/15 04:54:27;;;;;;;4.13;2.25;;;17.20;72.80;;;;;;5094198;28;20024;-90
2021/08/15 04:56:56;;;;;;;6.25;2.70;;;17.10;72.70;;;;;;5095663;28;20385;-90
2021/08/15 04:59:22;;;;;;;7.35;2.33;;;17.10;73.00;;;;;;5079860;28;20027;-89
2021/08/15 05:01:48;;;;;;;5.47;2.58;;;17.20;73.20;;;;;;5096544;28;20027;-89
2021/08/15 05:04:13;;;;;;;6.10;2.35;;;17.20;73.00;;;;;;5095747;28;20122;-91
2021/08/15 05:06:39;;;;;;;5.50;2.50;;;17.10;72.70;;;;;;5096101;28;20498;-93
2021/08/15 05:09:05;;;;;;;3.88;2.13;;;17.00;72.70;;;;;;5095701;28;20390;-92
2021/08/15 05:11:30;;;;;;;6.40;2.50;;;17.10;73.10;;;;;;5096306;28;20034;-94
2021/08/15 05:13:56;;;;;;;4.78;2.42;;;17.10;72.90;;;;;;5114163;28;20026;-93
2021/08/15 05:16:22;;;;;;;5.97;2.58;;;17.00;73.00;;;;;;5096299;28;20030;-90
2021/08/15 05:18:48;;;;;;;7.35;2.80;;;17.00;72.90;;;;;;5095349;28;20150;-90
2021/08/15 05:21:14;;;;;;;5.72;2.80;;;17.00;73.20;;;;;;5113105;28;20019;-91
2021/08/15 05:23:40;;;;;;;5.60;2.50;;;17.00;73.00;;;;;;5095244;28;20050;-89
2021/08/15 05:26:05;;;;;;;5.00;2.50;;;17.00;73.60;;;;;;5113923;28;20023;-89
2021/08/15 05:28:32;;;;;;;3.83;2.35;;;17.00;73.70;;;;;;5113891;28;20032;-90
2021/08/15 05:30:57;;;;;;;5.72;2.75;;;17.00;73.90;;;;;;5095047;28;20024;-90
2021/08/15 05:33:23;;;;;;;7.43;2.90;;;17.00;73.40;;;;;;5096192;28;20028;-91
2021/08/15 05:35:49;;;;;;;4.93;2.53;;;17.00;73.60;;;;;;5096162;28;20083;-93
2021/08/15 05:38:14;;;;;;;5.47;2.85;;;17.00;73.30;;;;;;5095868;28;20027;-92
2021/08/15 05:40:43;;;;;;;6.88;2.58;;;16.90;73.40;;;;;;5113989;28;20084;-91
2021/08/15 05:43:12;;;;;;;4.93;2.80;;;17.00;74.00;;;;;;5093689;28;20028;-90
2021/08/15 05:45:38;;;;;;;5.93;2.42;;;17.00;73.60;;;;;;5095578;28;20110;-89
2021/08/15 05:48:05;;;;;;;6.22;2.80;;;17.00;73.30;;;;;;5094628;28;20583;-89
2021/08/15 05:50:34;;;;;;;3.95;2.45;;;17.00;73.50;;;;;;5112991;28;20518;-90
2021/08/15 05:53:00;;;;;;;6.75;2.78;;;17.00;73.90;;;;;;5095115;28;20100;-90
2021/08/15 05:55:26;;;;;;;4.43;2.47;;;17.10;73.50;;;;;;5096148;28;20361;-89
2021/08/15 05:57:52;;;;;;;6.70;2.53;;;17.00;73.50;;;;;;5095549;28;20082;-90
2021/08/15 06:00:18;;;;;;;5.28;2.55;;;17.10;73.50;;;;;;5094832;28;20019;-91
2021/08/15 06:02:43;;;;;;;4.80;2.53;;;17.00;73.30;;;;;;5096076;28;20422;-90
2021/08/15 06:05:10;;;;;;;4.40;2.50;;;17.10;73.10;;;;;;5094404;28;20024;-90
2021/08/15 06:07:36;;;;;;;5.80;2.45;;;17.10;73.70;;;;;;5093223;28;20027;-91
2021/08/15 06:10:03;;;;;;;7.82;2.60;;;17.20;73.70;;;;;;5094669;28;20023;-90
2021/08/15 06:12:29;;;;;;;4.55;2.67;;;17.10;73.50;;;;;;5092634;28;20042;-90
2021/08/15 06:14:54;;;;;;;4.90;2.97;;;17.10;73.40;;;;;;5095280;28;20015;-90
2021/08/15 06:17:20;;;;;;;6.78;3.10;;;17.10;73.60;;;;;;5112882;28;20124;-89
2021/08/15 06:19:46;;;;;;;6.25;3.50;;;17.10;73.70;;;;;;5096076;28;20024;-92
2021/08/15 06:22:13;;;;;;;6.55;3.55;;;17.10;74.70;;;;;;5094988;28;20395;-93
2021/08/15 06:24:39;;;;;;;5.15;3.22;;;17.20;74.20;;;;;;5094713;28;20031;-89
2021/08/15 06:27:05;;;;;;;7.22;3.25;;;17.20;74.70;;;;;;5094876;28;20028;-90
2021/08/15 06:29:31;;;;;;;5.55;3.38;;;17.20;74.70;;;;;;5094932;28;20030;-92
2021/08/15 06:31:57;;;;;;;4.75;3.00;;;17.20;74.10;;;;;;5098560;27;20058;-92
2021/08/15 06:34:25;;;;;;;6.35;3.85;;;17.30;75.30;;;;;;5101003;27;20055;-90
2021/08/15 06:36:54;;;;;;;5.00;3.53;;;17.30;75.10;;;;;;5101727;28;20034;-91
2021/08/15 06:39:19;;;;;;;5.50;3.85;;;17.40;75.50;;;;;;5101081;28;20036;-90
2021/08/15 06:41:45;;;;;;;6.55;3.88;;;17.40;75.60;;;;;;5101448;28;20387;-90
2021/08/15 06:44:11;;;;;;;9.20;4.63;;;17.40;76.00;;;;;;5101327;28;20031;-92
2021/08/15 06:46:36;;;;;;;5.90;4.50;;;17.50;76.00;;;;;;5101968;28;20430;-92
2021/08/15 06:49:02;;;;;;;6.60;4.22;;;17.50;76.10;;;;;;5101548;28;20020;-88
2021/08/15 06:51:28;;;;;;;8.18;4.63;;;17.60;76.20;;;;;;5118503;27;20030;-88
2021/08/15 06:53:54;;;;;;;6.32;4.18;;;17.70;76.50;;;;;;5099918;28;20027;-89
2021/08/15 06:56:19;;;;;;;7.30;4.88;;;17.70;76.20;;;;;;5099419;28;20705;-88
2021/08/15 06:58:45;;;;;;;7.22;4.03;;;17.80;76.10;;;;;;5101040;28;20122;-89
2021/08/15 07:01:45;;;;;;;6.72;4.38;;;17.90;76.30;;;;;;5100522;28;20134;-93
2021/08/15 07:04:11;;;;;;;7.50;4.68;;;18.00;76.10;;;;;;5101326;27;20053;-92
2021/08/15 07:06:36;;;;;;;6.97;4.43;;;17.90;76.20;;;;;;5101083;28;20446;-91
2021/08/15 07:09:14;;;;;;;;;;;;;;;;;;;;;
2021/08/15 07:11:40;;;;;;;7.10;4.72;;;17.90;76.50;;;;;;5116667;27;20119;-89
2021/08/15 07:14:22;;;;;;;7.63;4.63;;;18.00;77.00;;;;;;5101700;27;20103;-94
2021/08/15 07:16:48;;;;;;;7.68;5.00;;;18.00;76.90;;;;;;5100455;28;20031;-88
2021/08/15 07:19:14;;;;;;;7.30;4.70;;;18.10;77.70;;;;;;5117398;28;20119;-77
2021/08/15 07:21:39;;;;;;;7.07;4.68;;;18.30;78.90;;;;;;5117198;28;20460;-88
2021/08/15 07:24:05;;;;;;;8.32;4.93;;;18.30;78.60;;;;;;5120844;28;20024;-88
2021/08/15 07:26:31;;;;;;;7.82;4.57;;;18.30;77.90;;;;;;5118762;28;20015;-87
2021/08/15 07:28:57;;;;;;;7.57;5.00;;;18.30;78.70;;;;;;5117911;28;20032;-87
2021/08/15 07:31:22;;;;;;;9.23;5.85;;;18.20;79.30;;;;;;5118023;28;20020;-92
2021/08/15 07:33:48;;;;;;;8.40;5.10;;;18.30;79.00;;;;;;5099564;28;20496;-90
2021/08/15 07:36:14;;;;;;;8.13;5.57;;;18.30;79.50;;;;;;5117570;27;20114;-92
2021/08/15 07:38:40;;;;;;;7.53;5.35;;;18.30;78.40;;;;;;5099388;28;20074;-88
2021/08/15 07:41:06;;;;;;;9.40;5.35;;;18.30;79.70;;;;;;5118092;28;20019;-90
2021/08/15 07:43:31;;;;;;;7.97;4.72;;;18.20;79.70;;;;;;5115807;27;20076;-90
2021/08/15 07:45:58;;;;;;;7.05;4.18;;;18.20;79.20;;;;;;5114562;28;20488;-80
2021/08/15 07:48:23;;;;;;;7.70;4.78;;;18.20;80.30;;;;;;5094571;28;20032;-87
2021/08/15 07:50:53;;;;;;;9.15;5.00;;;18.20;79.90;;;;;;5113680;28;20070;-84
2021/08/15 07:53:24;;;;;;;8.02;4.72;;;18.10;79.40;;;;;;5092535;28;20156;-86
2021/08/15 07:55:52;;;;;;;8.88;4.78;;;18.20;79.90;;;;;;5114665;27;20019;-85
2021/08/15 07:58:18;;;;;;;10.07;5.60;;;18.30;80.00;;;;;;5112112;28;20411;-84
2021/08/15 08:00:44;;;;;;;9.48;4.80;;;18.30;79.70;;;;;;5113441;28;20030;-85
2021/08/15 08:03:10;;;;;;;8.02;5.00;;;18.20;80.10;;;;;;5112210;28;20023;-85
2021/08/15 08:05:36;;;;;;;8.40;5.50;;;18.10;79.40;;;;;;5113439;28;20016;-84
2021/08/15 08:08:02;;;;;;;9.07;4.70;;;18.00;78.90;;;;;;5113702;28;20055;-82
2021/08/15 08:10:28;;;;;;;7.22;4.18;;;18.00;78.40;;;;;;5096134;28;20119;-83
2021/08/15 08:12:53;;;;;;;6.00;3.95;;;17.90;79.30;;;;;;5094269;28;20465;-83
2021/08/15 08:15:19;;;;;;;8.07;4.45;;;17.80;79.30;;;;;;5108589;28;20028;-83
2021/08/15 08:17:44;;;;;;;4.75;3.72;;;17.80;78.80;;;;;;5113441;28;20096;-83
2021/08/15 08:20:12;;;;;;;5.60;3.72;;;17.90;79.10;;;;;;5092086;28;20034;-84
2021/08/15 08:22:38;;;;;;;6.65;4.20;;;17.80;78.20;;;;;;5113480;28;20020;-84
2021/08/15 08:25:04;;;;;;;7.32;4.35;;;17.70;78.50;;;;;;5087536;28;20024;-84
2021/08/15 08:27:30;;;;;;;6.70;3.80;;;17.80;79.20;;;;;;5113546;27;20031;-84
2021/08/15 08:29:55;;;;;;;7.88;4.07;;;17.80;79.30;;;;;;5113587;28;20388;-85
2021/08/15 08:32:21;;;;;;;6.80;4.25;;;18.00;79.10;;;;;;5098795;28;20024;-84
2021/08/15 08:34:47;;;;;;;5.25;4.05;;;18.10;78.90;;;;;;5113647;28;20020;-84
2021/08/15 08:37:12;;;;;;;5.25;4.05;;;18.20;78.70;;;;;;5094395;28;20024;-84
2021/08/15 08:39:38;;;;;;;5.97;4.13;;;18.10;77.30;;;;;;5108887;27;20028;-86
2021/08/15 08:42:06;;;;;;;5.85;4.15;;;17.90;77.80;;;;;;5128934;27;20523;-86
2021/08/15 08:44:34;;;;;;;6.65;4.75;;;17.80;78.20;;;;;;5093497;28;20550;-88
2021/08/15 08:47:04;;;;;;;7.78;4.60;;;17.70;78.40;;;;;;5091934;28;20028;-87
2021/08/15 08:49:30;;;;;;;6.68;3.83;;;17.70;78.00;;;;;;5110964;28;20377;-85
2021/08/15 08:51:56;;;;;;;7.43;4.40;;;17.80;79.30;;;;;;5123043;27;20072;-87
2021/08/15 08:54:24;;;;;;;6.28;4.05;;;18.00;78.90;;;;;;5112206;28;20055;-85
2021/08/15 08:56:50;;;;;;;5.07;3.65;;;18.10;78.80;;;;;;5112737;28;20020;-85
2021/08/15 08:59:15;;;;;;;7.68;4.90;;;18.40;79.00;;;;;;5091234;28;20044;-85
2021/08/15 09:01:42;;;;;;;5.40;3.83;;;18.40;77.90;;;;;;5119289;27;20082;-86
2021/08/15 09:04:10;;;;;;;6.93;3.95;;;18.50;79.10;;;;;;5113028;27;20027;-86
2021/08/15 09:06:38;;;;;;;8.13;4.30;;;18.60;77.90;;;;;;5112926;28;20106;-86
2021/08/15 09:09:20;;;;;;;5.80;4.38;;;18.60;76.60;;;;;;5093442;28;20437;-87
2021/08/15 09:11:50;;;;;;;7.00;4.50;;;18.70;76.90;;;;;;5125974;27;20024;-91
2021/08/15 09:14:20;;;;;;;6.30;3.47;;;18.80;76.80;;;;;;5095691;28;20516;-88
2021/08/15 09:17:08;;;;;;;5.22;3.53;;;18.90;76.80;;;;;;5108953;28;20077;-86
2021/08/15 09:19:47;;;;;;;4.28;2.90;;;19.10;76.20;;;;;;5111103;28;20043;-82
2021/08/15 09:22:26;;;;;;;3.00;2.10;;;19.00;75.50;;;;;;5112703;28;20476;-87
2021/08/15 09:24:55;;;;;;;3.33;2.30;;;18.80;75.30;;;;;;5111972;28;20034;-84
2021/08/15 09:28:04;;;;;;;3.25;2.13;;;18.90;76.10;;;;;;5089939;28;20050;-85
2021/08/15 09:30:31;;;;;;;2.28;2.08;;;18.80;76.40;;;;;;5086265;28;20036;-90
2021/08/15 09:33:01;;;;;;;2.00;1.77;;;18.90;77.50;;;;;;5089110;28;20024;-86
2021/08/15 09:35:36;;;;;;;3.22;2.00;;;19.10;77.50;;;;;;5092084;28;20038;-88
2021/08/15 09:38:03;;;;;;;2.70;1.83;;;19.10;76.20;;;;;;5110955;28;20042;-86
2021/08/15 09:40:39;;;;;;;2.65;2.13;;;19.10;76.80;;;;;;5081591;28;20540;-87
2021/08/15 09:43:10;;;;;;;3.33;2.28;;;19.10;76.60;;;;;;5106942;28;20023;-85
2021/08/15 09:45:42;;;;;;;2.75;2.03;;;19.10;76.70;;;;;;5098250;28;20023;-88
2021/08/15 09:48:40;;;;;;;3.05;1.98;;;19.00;76.50;;;;;;5104694;28;20023;-84
2021/08/15 09:51:18;;;;;;;3.92;2.58;;;19.20;77.30;;;;;;5107835;27;20024;-82
2021/08/15 09:53:45;;;;;;;2.92;2.10;;;19.10;76.10;;;;;;5110488;28;20505;-84
2021/08/15 09:56:12;;;;;;;3.17;1.92;;;19.30;77.60;;;;;;5092711;28;20028;-81
2021/08/15 09:58:38;;;;;;;3.05;2.22;;;19.40;77.80;;;;;;5093327;28;20126;-83
2021/08/15 10:01:06;;;;;;;1.73;1.58;;;19.60;77.20;;;;;;5087845;28;20506;-83
2021/08/15 10:03:35;;;;;;;2.30;1.80;;;19.80;76.60;;;;;;5117471;27;20027;-84
2021/08/15 10:06:01;;;;;;;2.38;1.95;;;20.00;76.80;;;;;;5109764;28;20015;-86
2021/08/15 10:08:28;;;;;;;2.90;1.90;;;20.10;75.20;;;;;;5092599;28;20450;-83
2021/08/15 10:10:54;;;;;;;2.92;1.90;;;20.10;75.60;;;;;;5111689;28;20403;-83
2021/08/15 10:13:20;;;;;;;2.20;1.60;;;20.20;75.20;;;;;;5105216;28;20101;-84
2021/08/15 10:16:02;;;;;;;2.33;1.45;;;20.20;75.20;;;;;;5105815;28;20434;-88
2021/08/15 10:18:29;;;;;;;2.13;1.30;;;20.30;76.00;;;;;;5110338;28;20047;-84
2021/08/15 10:21:06;;;;;;;2.33;1.50;;;20.30;75.40;;;;;;5110569;28;20059;-87
2021/08/15 10:23:40;;;;;;;2.83;1.40;;;20.30;74.50;;;;;;5096198;28;20038;-85
2021/08/15 10:26:25;;;;;;;2.10;1.63;;;20.30;75.30;;;;;;5092107;28;20027;-85
2021/08/15 10:28:51;;;;;;;1.38;1.00;;;20.30;75.30;;;;;;5107445;28;20073;-87
2021/08/15 10:31:16;;;;;;;1.50;1.30;;;20.50;74.30;;;;;;5092264;28;20118;-89
2021/08/15 10:33:56;;;;;;;1.67;0.90;;;20.60;74.70;;;;;;5110491;28;20114;-85
2021/08/15 10:36:25;;;;;;;1.60;1.20;;;20.70;74.40;;;;;;5111016;28;20115;-82
2021/08/15 10:38:52;;;;;;;1.40;1.00;;;20.80;73.80;;;;;;5093490;28;20506;-87
2021/08/15 10:41:53;;;;;;;1.40;1.02;;;20.80;73.60;;;;;;5111116;28;20046;-88
2021/08/15 10:44:20;;;;;;;1.60;1.20;;;20.60;72.90;;;;;;5010291;28;20034;-88
2021/08/15 10:47:07;;;;;;;1.50;1.10;;;20.60;73.60;;;;;;5008318;28;20030;-87
2021/08/15 10:49:57;;;;;;;1.70;1.05;;;20.70;73.80;;;;;;5009554;28;20036;-87
2021/08/15 10:52:44;;;;;;;1.73;1.20;;;20.70;73.60;;;;;;5010100;28;20042;-89
2021/08/15 10:55:18;;;;;;;1.20;0.80;;;20.90;73.90;;;;;;5009844;28;20088;-89
2021/08/15 10:57:48;;;;;;;2.10;1.00;;;21.00;73.60;;;;;;5007729;28;20077;-86
2021/08/15 11:00:29;;;;;;;1.35;0.82;;;21.20;73.30;;;;;;5007626;28;20121;-86
2021/08/15 11:02:59;;;;;;;1.55;1.10;;;21.10;71.70;;;;;;5018821;28;20041;-90
2021/08/15 11:05:38;;;;;;;1.35;1.08;;;21.10;72.70;;;;;;5008637;28;20502;-89
2021/08/15 11:08:05;;;;;;;1.23;1.00;;;21.20;73.50;;;;;;5008425;28;20034;-89
2021/08/15 11:11:08;;;;;;;1.20;0.90;;;21.20;72.70;;;;;;5013292;28;20062;-87
2021/08/15 11:13:36;;;;;;;1.67;1.17;;;21.20;71.60;;;;;;5024147;28;20540;-86
2021/08/15 11:16:26;;;;;;;1.17;0.95;;;21.20;72.40;;;;;;4992175;28;20121;-87
2021/08/15 11:19:21;;;;;;;1.30;0.88;;;21.30;72.40;;;;;;5092234;28;20051;-88
2021/08/15 11:22:06;;;;;;;1.65;1.00;;;21.40;72.60;;;;;;5087716;28;20032;-84
2021/08/15 11:24:46;;;;;;;1.25;0.90;;;21.50;72.00;;;;;;5113874;28;20027;-87
2021/08/15 11:27:16;;;;;;;2.00;1.38;;;21.50;71.40;;;;;;5125355;27;20024;-88
2021/08/15 11:29:44;;;;;;;2.97;1.10;;;21.30;71.50;;;;;;5113604;28;20496;-86
2021/08/15 11:32:14;;;;;;;1.30;1.00;;;21.40;73.00;;;;;;5115070;28;20023;-87
2021/08/15 11:34:59;;;;;;;1.60;1.30;;;21.50;72.60;;;;;;5115058;28;20028;-86
2021/08/15 11:37:30;;;;;;;1.52;1.00;;;21.70;72.00;;;;;;5107709;28;20032;-86
2021/08/15 11:39:56;;;;;;;1.58;1.10;;;21.80;71.10;;;;;;5091948;28;20152;-88
2021/08/15 11:42:26;;;;;;;1.58;1.00;;;22.00;70.50;;;;;;5114638;28;20062;-88
2021/08/15 11:44:54;;;;;;;1.00;0.80;;;22.00;70.30;;;;;;5096284;28;20027;-93
2021/08/15 11:47:27;;;;;;;1.00;0.90;;;22.00;70.00;;;;;;5096890;28;20023;-92
2021/08/15 11:49:54;;;;;;;1.15;0.93;;;21.80;69.80;;;;;;5093453;28;20496;-90
2021/08/15 11:52:25;;;;;;;1.20;1.00;;;21.90;70.60;;;;;;5094142;28;20062;-93
2021/08/15 11:54:53;;;;;;;1.27;0.98;;;21.90;70.70;;;;;;5115687;28;20024;-92
2021/08/15 11:57:20;;;;;;;1.50;0.88;;;22.10;71.20;;;;;;5115428;28;20106;-91
2021/08/15 12:00:01;;;;;;;1.75;1.42;;;22.30;70.40;;;;;;5094582;28;20027;-92
2021/08/15 12:02:27;;;;;;;3.40;1.10;;;22.50;70.10;;;;;;5114373;27;20407;-91
2021/08/15 12:04:52;;;;;;;2.45;1.55;;;22.60;68.80;;;;;;5115769;28;20024;-91
2021/08/15 12:07:26;;;;;;;1.98;1.40;;;22.60;69.20;;;;;;5115013;28;20020;-92
2021/08/15 12:10:27;;;;;;;1.73;1.15;;;22.70;69.80;;;;;;5096128;28;20491;-90
2021/08/15 12:13:31;;;;;;;3.15;1.83;;;22.80;68.80;;;;;;5094749;28;20044;-91
2021/08/15 12:16:00;;;;;;;1.92;1.20;;;22.90;68.70;;;;;;5007881;28;20033;-91
2021/08/15 12:18:37;;;;;;;4.90;3.28;;;22.90;68.40;;;;;;5023388;28;20633;-91
2021/08/15 12:21:16;;;;;;;2.78;2.00;;;22.90;68.10;;;;;;5023054;28;20072;-91
2021/08/15 12:24:03;;;;;;;3.75;2.30;;;22.90;68.50;;;;;;4996971;28;20068;-92
2021/08/15 12:26:32;;;;;;;8.10;4.05;;;23.00;68.80;;;;;;5026697;28;20081;-91
2021/08/15 12:29:02;;;;;;;2.13;1.40;;;23.00;67.30;;;;;;5010500;28;20037;-90
2021/08/15 12:31:30;;;;;;;5.50;3.08;;;23.10;67.00;;;;;;5010949;28;20042;-94
2021/08/15 12:34:08;;;;;;;5.60;3.35;;;23.10;67.10;;;;;;4992982;28;20132;-93
2021/08/15 12:36:49;;;;;;;3.72;1.80;;;23.20;66.40;;;;;;5005320;28;20037;-90
2021/08/15 12:39:16;;;;;;;1.50;1.17;;;23.30;66.30;;;;;;5004840;28;20038;-89
2021/08/15 12:41:57;;;;;;;2.17;1.30;;;23.40;66.90;;;;;;5027186;28;20029;-92
2021/08/15 12:44:29;;;;;;;1.35;0.85;;;23.60;66.70;;;;;;4996109;28;20033;-94
2021/08/15 12:47:06;;;;;;;1.63;1.00;;;23.60;65.50;;;;;;4996549;28;20036;-91
2021/08/15 12:49:38;;;;;;;1.30;0.60;;;23.60;66.00;;;;;;5025883;28;20032;-92
2021/08/15 12:52:18;;;;;;;1.98;0.57;;;23.70;65.30;;;;;;5112096;28;20111;-92
2021/08/15 12:55:05;;;;;;;0.80;0.52;;;23.30;63.90;;;;;;5113184;28;20028;-92
2021/08/15 12:57:32;;;;;;;0.77;0.50;;;23.10;65.30;;;;;;5093589;28;20031;-90
2021/08/15 12:59:58;;;;;;;0.60;0.40;;;23.00;65.90;;;;;;5114086;28;20024;-91
2021/08/15 13:02:23;;;;;;;1.35;0.50;;;23.10;65.80;;;;;;5114459;28;20507;-91
2021/08/15 13:04:49;;;;;;;0.65;0.40;;;23.20;65.90;;;;;;5113699;28;20031;-91
2021/08/15 13:07:15;;;;;;;0.50;0.40;;;23.30;65.90;;;;;;5093928;28;20030;-86
2021/08/15 13:09:40;;;;;;;0.65;0.38;;;23.30;64.80;;;;;;5114371;28;20074;-89
2021/08/15 13:12:06;;;;;;;0.65;0.40;;;23.20;64.90;;;;;;5094782;28;20020;-84